Cleveland Hopkins International Airport
KCLE : now visible

Airfield :











YOU CAN JOIN US ON...

 
LOGIN :

Register | Disclaimer

   EN    FR    IT 

 









Legend :    VFR   Marginal VFR   IFR   Intensive IFR   Very Intensive IFR
Visi :
Ceiling :
>= 8 km
>= 3000ft
5 to 8 km
1000 to 3000 ft
1500m to 5 km
500 to 1000 ft
800 to 1500m
200 to 500 ft
< 800m
< 200 ft
Symbols :   Thunderstorms  Fog  Heavy snow  Heavy precipitations  Wind > 20 kt






- Airport Elevation : 791 ft
- IATA code : CLE


KCLE - Cleveland Hopkins International

CURRENT METAR :
  • 210051Z 10005KT 10SM OVC008 11/09 A3015 RMK AO2 SLP229 T01060089 $

EXPIRED METARs :
  • 210019Z 10008KT 10SM OVC009 11/09 A3016 RMK AO2 T01060089 $
  • 202351Z 08006KT 10SM OVC010 11/09 A3018 RMK AO2 SLP236 60000 T01060089 10111 20106 58008 $
  • 202251Z 10008KT 10SM OVC010 11/08 A3020 RMK AO2 SLP244 T01060083 $

TAF KCLE
Valid from the 21 at 00:00 until the 22 at 06:00 UTC


202326Z 2100/2206 09005KT P6SM BKN010
FM210400 18009KT 3SM -SHRA OVC015
TEMPO 2104/2108 3SM -TSRA OVC008CB
FM210800 19012G22KT 5SM -SHRA BKN010 WS020/22045KT
FM211400 22011KT P6SM BKN015
FM211900 29011KT P6SM BKN015
FM220100 31003KT P6SM BKN060
KZOB FIR / North America



MET'MAP, your aeronautical weather chart ! - Copyright ORBIFLY December 2007 - Disclaimer

ORBIFLY MET'MAP TEAM :

Programming & Development : Alexandra Zaïnal
Concept & original design : Baudouin d'Aumeries
Assistance for programming : Marc-Olivier Méhu
Technical & hardware support : Manuel Goepfert

Contact : metmap@orbifly.com




SOURCES & CREDITS :

   NOAA       Earth
Advisory